createdAt,value
2022-08-19T00:01:02.536Z,98954.09
2022-08-19T00:03:50.394Z,98949.87
2022-08-19T00:06:39.192Z,98951.41
2022-08-19T00:09:27.642Z,98953.75
2022-08-19T00:12:15.188Z,98945.19
2022-08-19T00:15:04.038Z,98941.16
2022-08-19T00:17:51.648Z,98942.75
2022-08-19T00:20:39.542Z,98939.94
2022-08-19T00:23:27.515Z,98939.19
2022-08-19T00:26:15.327Z,98934.72
2022-08-19T00:29:03.586Z,98934.22
2022-08-19T00:31:53.159Z,98936.63
2022-08-19T00:34:41.041Z,98944.56
2022-08-19T00:37:29.316Z,98948.09
2022-08-19T00:40:18.515Z,98942.50
2022-08-19T00:43:13.535Z,98948.91
2022-08-19T00:46:01.102Z,98951.59
2022-08-19T00:48:48.968Z,98954.72
2022-08-19T00:51:36.556Z,98959.81
2022-08-19T00:54:28.239Z,98957.19
2022-08-19T00:57:21.822Z,98957.97
2022-08-19T01:00:13.421Z,98949.00
2022-08-19T01:03:00.967Z,98946.28
2022-08-19T01:05:50.009Z,98947.94
2022-08-19T01:08:37.829Z,98948.72
2022-08-19T01:11:26.460Z,98952.75
2022-08-19T01:14:14.694Z,98938.22
2022-08-19T01:17:02.711Z,98919.09
2022-08-19T01:19:50.366Z,98926.50
2022-08-19T01:22:48.380Z,98924.59
2022-08-19T01:25:40.843Z,98922.25
2022-08-19T01:28:33.887Z,98921.53
2022-08-19T01:31:28.523Z,98927.88
2022-08-19T01:34:16.397Z,98928.59
2022-08-19T01:37:08.526Z,98930.59
2022-08-19T01:39:56.416Z,98929.50
2022-08-19T01:42:43.988Z,98929.09
2022-08-19T01:45:33.697Z,98926.72
2022-08-19T01:48:21.242Z,98927.56
2022-08-19T01:51:09.648Z,98924.88
2022-08-19T01:53:57.748Z,98925.28
2022-08-19T01:56:45.629Z,98915.50
2022-08-19T01:59:34.089Z,98913.22
2022-08-19T02:02:21.949Z,98910.09
2022-08-19T02:05:11.198Z,98902.66
2022-08-19T02:07:58.952Z,98903.44
2022-08-19T02:10:46.849Z,98905.78
2022-08-19T02:13:35.347Z,98899.53
2022-08-19T02:16:23.312Z,98910.56
2022-08-19T02:19:10.915Z,98903.47
2022-08-19T02:21:58.954Z,98897.25
2022-08-19T02:24:46.499Z,98892.94
2022-08-19T02:27:34.345Z,98901.19
2022-08-19T02:30:22.347Z,98901.97
2022-08-19T02:33:10.177Z,98891.03
2022-08-19T02:35:57.717Z,98879.28
2022-08-19T02:38:47.146Z,98862.03
2022-08-19T02:41:42.307Z,98845.19
2022-08-19T02:44:31.963Z,98853.03
2022-08-19T02:47:20.642Z,98858.53
2022-08-19T02:50:08.736Z,98867.94
2022-08-19T02:52:56.269Z,98879.31
2022-08-19T02:55:46.407Z,98882.81
2022-08-19T02:58:34.137Z,98891.03
2022-08-19T03:01:28.408Z,98896.91
2022-08-19T03:04:16.872Z,98902.78
2022-08-19T03:07:11.240Z,98905.94
2022-08-19T03:09:59.106Z,98909.81
2022-08-19T03:12:47.179Z,98913.38
2022-08-19T03:15:34.748Z,98916.91
2022-08-19T03:18:23.314Z,98914.22
2022-08-19T03:21:16.460Z,98918.16
2022-08-19T03:24:06.776Z,98920.91
2022-08-19T03:26:55.710Z,98927.16
2022-08-19T03:29:44.081Z,98933.00
2022-08-19T03:32:32.993Z,98935.81
2022-08-19T03:35:21.291Z,98932.66
2022-08-19T03:38:08.809Z,98934.25
2022-08-19T03:40:56.635Z,98937.00
2022-08-19T03:43:44.428Z,98940.91
2022-08-19T03:46:33.619Z,98932.72
2022-08-19T03:49:21.385Z,98937.00
2022-08-19T03:52:15.058Z,98946.41
2022-08-19T03:55:03.370Z,98940.13
2022-08-19T03:57:51.219Z,98941.72
2022-08-19T04:00:38.782Z,98945.22
2022-08-19T04:03:26.818Z,98938.94
2022-08-19T04:06:24.029Z,98944.06
2022-08-19T04:09:12.177Z,98945.22
2022-08-19T04:11:59.717Z,98954.63
2022-08-19T04:14:47.817Z,98951.09
2022-08-19T04:17:35.389Z,98953.06
2022-08-19T04:20:23.284Z,98952.66
2022-08-19T04:23:11.716Z,98957.72
2022-08-19T04:26:01.120Z,98965.16
2022-08-19T04:28:48.907Z,98965.56
2022-08-19T04:31:36.848Z,98969.84
2022-08-19T04:34:26.492Z,98970.25
2022-08-19T04:37:14.344Z,98974.53
2022-08-19T04:40:02.618Z,98984.31
2022-08-19T04:42:50.673Z,98985.84
2022-08-19T04:45:43.497Z,98981.94
2022-08-19T04:48:31.811Z,98983.50
2022-08-19T04:51:22.810Z,98978.78
2022-08-19T04:54:10.916Z,98968.62
2022-08-19T04:56:58.477Z,98979.97
2022-08-19T04:59:46.289Z,98976.03
2022-08-19T05:02:33.851Z,98977.19
2022-08-19T05:05:21.696Z,98986.56
2022-08-19T05:08:09.252Z,98991.69
2022-08-19T05:10:59.532Z,98992.84
2022-08-19T05:13:48.692Z,98991.62
2022-08-19T05:16:36.818Z,98981.81
2022-08-19T05:19:24.367Z,98978.25
2022-08-19T05:22:12.236Z,98980.19
2022-08-19T05:25:12.155Z,98987.22
2022-08-19T05:28:01.122Z,98990.75
2022-08-19T05:30:49.062Z,98995.03
2022-08-19T05:33:37.001Z,99001.66
2022-08-19T05:36:24.804Z,99007.50
2022-08-19T05:39:19.409Z,98996.94
2022-08-19T05:42:10.493Z,99010.97
2022-08-19T05:44:58.330Z,99011.31
2022-08-19T05:47:45.857Z,98999.09
2022-08-19T05:50:33.692Z,98999.03
2022-08-19T05:53:21.274Z,98999.75
2022-08-19T05:56:15.784Z,99004.34
2022-08-19T05:59:03.576Z,99005.50
2022-08-19T06:01:54.381Z,99007.84
2022-08-19T06:04:42.212Z,99012.06
2022-08-19T06:07:29.948Z,99004.91
2022-08-19T06:10:17.860Z,98999.34
2022-08-19T06:13:05.422Z,99001.34
2022-08-19T06:15:53.267Z,98999.31
2022-08-19T06:18:40.820Z,99009.81
2022-08-19T06:21:30.697Z,99003.81
2022-08-19T06:24:23.490Z,98996.34
2022-08-19T06:27:11.334Z,99002.19
2022-08-19T06:29:58.860Z,99007.88
2022-08-19T06:32:46.689Z,99016.88
2022-08-19T06:35:34.302Z,99011.72
2022-08-19T06:38:22.174Z,99010.13
2022-08-19T06:41:09.751Z,99003.84
2022-08-19T06:43:57.755Z,99002.06
2022-08-19T06:46:45.609Z,98997.22
2022-08-19T06:49:43.102Z,98994.78
2022-08-19T06:52:34.110Z,98989.88
2022-08-19T06:55:22.236Z,98995.97
2022-08-19T06:58:09.757Z,98993.06
2022-08-19T07:00:57.593Z,98984.75
2022-08-19T07:03:45.181Z,98986.56
2022-08-19T07:06:43.892Z,98990.22
2022-08-19T07:09:32.035Z,98993.94
2022-08-19T07:12:20.268Z,98987.87
2022-08-19T07:15:10.640Z,98984.50
2022-08-19T07:17:58.503Z,98995.19
2022-08-19T07:20:46.063Z,98997.38
2022-08-19T07:23:34.997Z,98994.97
2022-08-19T07:26:36.805Z,98986.94
2022-08-19T07:29:25.768Z,98984.25
2022-08-19T07:32:16.170Z,98978.91
2022-08-19T07:35:04.976Z,98987.16
2022-08-19T07:37:52.568Z,98995.13
2022-08-19T07:40:40.481Z,99013.78
2022-08-19T07:43:34.999Z,99012.25
2022-08-19T07:46:23.171Z,99015.13
2022-08-19T07:49:10.914Z,99015.97
2022-08-19T07:52:06.706Z,99023.41
2022-08-19T07:54:54.251Z,99015.44
2022-08-19T07:57:42.104Z,99021.00
2022-08-19T08:00:29.736Z,99022.62
2022-08-19T08:03:20.501Z,99025.78
2022-08-19T08:06:08.515Z,99020.41
2022-08-19T08:08:56.566Z,99007.12
2022-08-19T08:11:51.068Z,98999.66
2022-08-19T08:14:49.682Z,98999.22
2022-08-19T08:17:48.694Z,98998.72
2022-08-19T08:20:38.090Z,98994.50
2022-08-19T08:23:25.744Z,99006.69
2022-08-19T08:26:13.603Z,99011.00
2022-08-19T08:29:12.430Z,99011.00
2022-08-19T08:32:00.527Z,99021.50
2022-08-19T08:34:51.737Z,99018.16
2022-08-19T08:37:40.752Z,99021.03
2022-08-19T08:40:39.685Z,99025.31
2022-08-19T08:43:34.488Z,99025.44
2022-08-19T08:46:38.921Z,99008.19
2022-08-19T08:49:52.915Z,99017.87
2022-08-19T08:52:44.477Z,99023.41
2022-08-19T08:55:36.778Z,99026.81
2022-08-19T08:58:38.246Z,99032.59
2022-08-19T09:01:30.426Z,99035.75
2022-08-19T09:04:18.497Z,99026.50
2022-08-19T09:07:36.926Z,99028.28
2022-08-19T09:10:25.965Z,99026.16
2022-08-19T09:13:17.779Z,99020.81
2022-08-19T09:16:10.024Z,99010.22
2022-08-19T09:19:02.676Z,98993.84
2022-08-19T09:21:50.328Z,98986.03
2022-08-19T09:24:38.178Z,98984.47
2022-08-19T09:27:35.580Z,98992.53
2022-08-19T09:30:39.475Z,98994.03
2022-08-19T09:33:27.082Z,98997.94
2022-08-19T09:36:21.631Z,98997.31
2022-08-19T09:39:18.614Z,98998.97
2022-08-19T09:42:06.460Z,98997.88
2022-08-19T09:45:05.380Z,98998.62
2022-08-19T09:47:58.402Z,99002.66
2022-08-19T09:50:51.661Z,98991.84
2022-08-19T09:53:40.355Z,98985.41
2022-08-19T09:56:28.481Z,98985.53
2022-08-19T09:59:16.546Z,98985.19
2022-08-19T10:02:10.793Z,98984.59
2022-08-19T10:04:59.184Z,98970.81
2022-08-19T10:07:48.574Z,98963.19
2022-08-19T10:10:37.299Z,98954.88
2022-08-19T10:13:29.375Z,98941.22
2022-08-19T10:16:21.058Z,98938.50
2022-08-19T10:19:08.677Z,98935.00
2022-08-19T10:22:00.311Z,98927.44
2022-08-19T10:24:48.134Z,98937.38
2022-08-19T10:27:36.016Z,98929.59
2022-08-19T10:30:24.892Z,98932.97
2022-08-19T10:33:12.899Z,98925.06
2022-08-19T10:36:21.516Z,98927.59
2022-08-19T10:39:10.715Z,98923.28
2022-08-19T10:42:00.931Z,98925.47
2022-08-19T10:44:48.747Z,98934.22
2022-08-19T10:47:36.463Z,98926.44
2022-08-19T10:50:28.757Z,98918.44
2022-08-19T10:53:16.497Z,98927.59
2022-08-19T10:56:04.401Z,98918.50
2022-08-19T10:58:51.943Z,98924.00
2022-08-19T11:01:39.892Z,98925.75
2022-08-19T11:04:29.519Z,98929.66
2022-08-19T11:07:17.976Z,98924.69
2022-08-19T11:10:07.565Z,98922.12
2022-08-19T11:12:58.126Z,98916.31
2022-08-19T11:15:45.657Z,98921.41
2022-08-19T11:18:34.534Z,98925.44
2022-08-19T11:21:30.622Z,98918.25
2022-08-19T11:24:22.273Z,98917.56
2022-08-19T11:27:11.029Z,98921.75
2022-08-19T11:29:58.871Z,98932.56
2022-08-19T11:32:49.366Z,98927.31
2022-08-19T11:35:40.364Z,98915.28
2022-08-19T11:38:28.209Z,98915.47
2022-08-19T11:41:18.374Z,98917.31
2022-08-19T11:44:06.765Z,98916.44
2022-08-19T11:46:54.609Z,98920.97
2022-08-19T11:49:42.225Z,98915.53
2022-08-19T11:52:30.079Z,98916.06
2022-08-19T11:55:17.703Z,98914.38
2022-08-19T11:58:05.638Z,98909.00
2022-08-19T12:00:53.565Z,98903.59
2022-08-19T12:03:41.433Z,98901.50
2022-08-19T12:06:31.609Z,98906.09
2022-08-19T12:09:19.506Z,98900.09
2022-08-19T12:12:07.373Z,98899.44
2022-08-19T12:14:55.234Z,98890.06
2022-08-19T12:17:43.320Z,98888.66
2022-08-19T12:20:29.132Z,98885.28
2022-08-19T12:23:15.145Z,98891.09
2022-08-19T12:26:01.291Z,98892.94
2022-08-19T12:28:47.175Z,98895.03
2022-08-19T12:31:33.332Z,98894.97
2022-08-19T12:34:19.040Z,98888.69
2022-08-19T12:37:06.968Z,98896.84
2022-08-19T12:39:52.751Z,98889.59
2022-08-19T12:42:41.681Z,98893.66
2022-08-19T12:45:29.221Z,98883.72
2022-08-19T12:48:33.369Z,98893.16
2022-08-19T12:51:22.934Z,98888.91
2022-08-19T12:54:11.128Z,98878.94
2022-08-19T12:56:59.848Z,98883.50
2022-08-19T12:59:47.679Z,98882.25
2022-08-19T13:02:38.552Z,98869.44
2022-08-19T13:05:29.221Z,98871.53
2022-08-19T13:08:16.773Z,98860.84
2022-08-19T13:11:14.553Z,98863.81
2022-08-19T13:14:04.314Z,98853.75
2022-08-19T13:16:52.185Z,98850.09
2022-08-19T13:19:39.735Z,98851.59
2022-08-19T13:22:29.033Z,98847.75
2022-08-19T13:25:17.362Z,98840.00
2022-08-19T13:28:05.282Z,98844.84
2022-08-19T13:30:52.953Z,98846.84
2022-08-19T13:33:40.771Z,98844.16
2022-08-19T13:36:28.321Z,98844.25
2022-08-19T13:39:16.148Z,98841.09
2022-08-19T13:42:04.438Z,98837.91
2022-08-19T13:44:54.612Z,98836.19
2022-08-19T13:47:42.199Z,98832.06
2022-08-19T13:50:31.369Z,98837.41
2022-08-19T13:53:19.345Z,98832.16
2022-08-19T13:56:10.396Z,98815.81
2022-08-19T13:58:59.614Z,98825.84
2022-08-19T14:01:47.575Z,98818.78
2022-08-19T14:04:35.445Z,98816.81
2022-08-19T14:07:22.970Z,98802.81
2022-08-19T14:10:13.055Z,98802.19
2022-08-19T14:13:03.205Z,98799.97
2022-08-19T14:15:51.460Z,98802.28
2022-08-19T14:18:39.327Z,98793.28
2022-08-19T14:21:27.182Z,98789.50
2022-08-19T14:24:14.710Z,98785.44
2022-08-19T14:27:02.564Z,98792.62
2022-08-19T14:29:53.441Z,98776.63
2022-08-19T14:32:41.394Z,98773.91
2022-08-19T14:35:30.410Z,98773.50
2022-08-19T14:38:18.679Z,98765.31
2022-08-19T14:41:18.107Z,98787.03
2022-08-19T14:44:05.960Z,98772.44
2022-08-19T14:46:53.492Z,98765.53
2022-08-19T14:49:44.831Z,98775.34
2022-08-19T14:52:35.937Z,98775.91
2022-08-19T14:55:23.798Z,98767.91
2022-08-19T14:58:29.072Z,98767.66
2022-08-19T15:01:18.641Z,98785.34
2022-08-19T15:04:06.263Z,98790.63
2022-08-19T15:06:54.092Z,98800.25
2022-08-19T15:09:41.638Z,98798.31
2022-08-19T15:12:29.484Z,98814.38
2022-08-19T15:15:17.111Z,98821.09
2022-08-19T15:18:04.976Z,98845.69
2022-08-19T15:20:52.548Z,98856.66
2022-08-19T15:23:40.412Z,98863.13
2022-08-19T15:26:32.948Z,98856.81
2022-08-19T15:29:20.795Z,98881.94
2022-08-19T15:32:08.738Z,98902.66
2022-08-19T15:34:56.567Z,98900.22
2022-08-19T15:37:44.135Z,98899.88
2022-08-19T15:40:32.032Z,98911.91
2022-08-19T15:43:20.525Z,98932.78
2022-08-19T15:46:08.390Z,98922.47
2022-08-19T15:49:00.238Z,98911.63
2022-08-19T15:51:49.614Z,98907.22
2022-08-19T15:54:37.188Z,98894.31
2022-08-19T15:57:24.995Z,98869.12
2022-08-19T16:00:12.650Z,98847.81
2022-08-19T16:03:00.481Z,98835.03
2022-08-19T16:05:48.306Z,98842.25
2022-08-19T16:08:48.819Z,98836.59
2022-08-19T16:11:39.982Z,98825.66
2022-08-19T16:14:28.145Z,98831.75
2022-08-19T16:17:15.671Z,98829.44
2022-08-19T16:20:05.568Z,98829.81
2022-08-19T16:22:53.122Z,98829.69
2022-08-19T16:25:41.013Z,98819.69
2022-08-19T16:28:28.573Z,98818.81
2022-08-19T16:31:16.666Z,98824.38
2022-08-19T16:34:05.074Z,98827.91
2022-08-19T16:36:52.900Z,98829.13
2022-08-19T16:39:40.945Z,98837.09
2022-08-19T16:42:31.534Z,98836.97
2022-08-19T16:45:19.073Z,98855.81
2022-08-19T16:48:06.901Z,98864.22
2022-08-19T16:50:54.424Z,98868.88
2022-08-19T16:53:43.473Z,98877.19
2022-08-19T16:56:31.078Z,98884.72
2022-08-19T16:59:18.936Z,98900.53
2022-08-19T17:02:06.476Z,98916.03
2022-08-19T17:04:58.195Z,98929.50
2022-08-19T17:07:46.420Z,98943.81
2022-08-19T17:10:34.475Z,98957.78
2022-08-19T17:13:23.255Z,98953.41
2022-08-19T17:16:11.093Z,98955.63
2022-08-19T17:19:01.593Z,98946.22
2022-08-19T17:21:49.431Z,98934.22
2022-08-19T17:24:37.435Z,98935.88
2022-08-19T17:27:31.445Z,98910.84
2022-08-19T17:30:21.434Z,98899.06
2022-08-19T17:33:09.293Z,98887.44
2022-08-19T17:35:56.887Z,98865.34
2022-08-19T17:38:45.092Z,98851.28
2022-08-19T17:41:33.105Z,98849.81
2022-08-19T17:44:20.994Z,98835.44
2022-08-19T17:47:08.522Z,98823.88
2022-08-19T17:49:57.023Z,98805.75
2022-08-19T17:52:44.576Z,98802.38
2022-08-19T17:55:33.316Z,98817.59
2022-08-19T17:58:20.837Z,98811.63
2022-08-19T18:01:11.870Z,98813.31
2022-08-19T18:04:01.197Z,98811.69
2022-08-19T18:06:53.657Z,98810.97
2022-08-19T18:09:49.353Z,98807.44
2022-08-19T18:12:37.569Z,98811.41
2022-08-19T18:15:25.536Z,98817.38
2022-08-19T18:18:15.134Z,98832.72
2022-08-19T18:21:03.580Z,98846.09
2022-08-19T18:23:51.790Z,98850.84
2022-08-19T18:26:48.272Z,98859.56
2022-08-19T18:29:34.637Z,98878.91
2022-08-19T18:32:23.931Z,98923.00
2022-08-19T18:35:13.555Z,98982.31
2022-08-19T18:38:01.212Z,99058.31
2022-08-19T18:40:47.162Z,99073.44
2022-08-19T18:43:33.022Z,99082.94
2022-08-19T18:46:18.891Z,99080.88
2022-08-19T18:49:06.867Z,99082.72
2022-08-19T18:51:53.266Z,99083.22
2022-08-19T18:54:39.383Z,99068.00
2022-08-19T18:57:25.081Z,99075.03
2022-08-19T19:00:12.979Z,99066.03
2022-08-19T19:02:59.397Z,99064.94
2022-08-19T19:05:45.810Z,99053.75
2022-08-19T19:08:31.777Z,99045.91
2022-08-19T19:11:23.257Z,99048.81
2022-08-19T19:14:18.989Z,99054.31
2022-08-19T19:17:15.287Z,99050.50
2022-08-19T19:20:01.184Z,99042.47
2022-08-19T19:22:47.279Z,99031.41
2022-08-19T19:25:50.050Z,99023.56
2022-08-19T19:28:38.890Z,99017.63
2022-08-19T19:31:26.184Z,99011.28
2022-08-19T19:34:15.503Z,99002.00
2022-08-19T19:37:15.989Z,98991.91
2022-08-19T19:40:02.076Z,98978.13
2022-08-19T19:42:48.775Z,98965.00
2022-08-19T19:45:35.087Z,98964.28
2022-08-19T19:48:20.698Z,98966.69
2022-08-19T19:51:07.143Z,98974.72
2022-08-19T19:53:53.104Z,98975.22
2022-08-19T19:56:42.119Z,98968.09
2022-08-19T19:59:27.949Z,98961.16
2022-08-19T20:02:14.479Z,98955.38
2022-08-19T20:05:02.486Z,98955.91
2022-08-19T20:07:49.489Z,98951.50
2022-08-19T20:10:35.929Z,98949.69
2022-08-19T20:13:21.723Z,98985.53
2022-08-19T20:16:08.384Z,99158.03
2022-08-19T20:18:55.625Z,99173.78
2022-08-19T20:21:43.435Z,99141.59
2022-08-19T20:24:35.201Z,99117.41
2022-08-19T20:27:23.586Z,99224.53
2022-08-19T20:30:19.178Z,99246.94
2022-08-19T20:33:06.222Z,99222.84
2022-08-19T20:35:52.125Z,99219.31
2022-08-19T20:38:37.990Z,99226.53
2022-08-19T20:41:24.311Z,99230.91
2022-08-19T20:44:10.805Z,99221.31
2022-08-19T20:47:00.529Z,99240.88
2022-08-19T20:49:49.358Z,99241.59
2022-08-19T20:52:35.663Z,99251.16
2022-08-19T20:55:22.011Z,99235.00
2022-08-19T20:58:07.659Z,99240.91
2022-08-19T21:00:56.350Z,99245.63
2022-08-19T21:03:43.092Z,99224.59
2022-08-19T21:06:29.831Z,99195.75
2022-08-19T21:09:15.903Z,99168.47
2022-08-19T21:12:06.926Z,99156.34
2022-08-19T21:14:53.019Z,99129.03
2022-08-19T21:17:39.148Z,99113.84
2022-08-19T21:20:25.319Z,99082.16
2022-08-19T21:23:15.276Z,99078.66
2022-08-19T21:26:01.162Z,99075.09
2022-08-19T21:28:47.509Z,99077.84
2022-08-19T21:31:33.360Z,99093.44
2022-08-19T21:34:19.566Z,99096.59
2022-08-19T21:37:06.097Z,99095.84
2022-08-19T21:39:57.976Z,99104.03
2022-08-19T21:42:44.254Z,99101.37
2022-08-19T21:45:30.424Z,99094.22
2022-08-19T21:48:16.221Z,99082.09
2022-08-19T21:51:02.675Z,99083.28
2022-08-19T21:53:48.333Z,99082.50
2022-08-19T21:56:35.197Z,99075.38
2022-08-19T21:59:21.182Z,99073.09
2022-08-19T22:02:19.648Z,99073.81
2022-08-19T22:05:06.667Z,99049.59
2022-08-19T22:07:55.117Z,99047.19
2022-08-19T22:10:44.431Z,99028.81
2022-08-19T22:13:39.107Z,99034.63
2022-08-19T22:16:26.101Z,99035.84
2022-08-19T22:19:11.988Z,99028.56
2022-08-19T22:21:59.368Z,99009.03
2022-08-19T22:24:45.326Z,98990.31
2022-08-19T22:27:31.267Z,98987.16
2022-08-19T22:30:19.886Z,98973.50
2022-08-19T22:33:11.622Z,98964.94
2022-08-19T22:35:57.749Z,98957.87
2022-08-19T22:38:43.899Z,98936.81
2022-08-19T22:41:29.915Z,98912.91
2022-08-19T22:44:16.390Z,98905.56
2022-08-19T22:47:02.054Z,98904.37
2022-08-19T22:49:48.132Z,98900.88
2022-08-19T22:52:34.317Z,98886.41
2022-08-19T22:55:20.653Z,98887.66
2022-08-19T22:58:06.486Z,98869.28
2022-08-19T23:00:52.795Z,98867.66
2022-08-19T23:03:39.099Z,98862.59
2022-08-19T23:06:33.173Z,98862.25
2022-08-19T23:09:20.126Z,98863.81
2022-08-19T23:12:10.219Z,98849.38
2022-08-19T23:14:55.933Z,98843.97
2022-08-19T23:17:42.371Z,98842.00
2022-08-19T23:20:33.897Z,98848.69
2022-08-19T23:23:21.645Z,98860.38
2022-08-19T23:26:10.417Z,98861.59
2022-08-19T23:28:57.984Z,98860.75
2022-08-19T23:31:44.068Z,98858.81
2022-08-19T23:34:30.653Z,98869.78
2022-08-19T23:37:16.704Z,98869.00
2022-08-19T23:40:05.792Z,98859.63
2022-08-19T23:42:51.664Z,98866.28
2022-08-19T23:45:39.591Z,98860.41
2022-08-19T23:48:28.463Z,98872.91
2022-08-19T23:51:15.786Z,98872.91
2022-08-19T23:54:01.750Z,98874.84
2022-08-19T23:56:47.633Z,98881.09
2022-08-19T23:59:33.629Z,98894.72
